Rockford, IL

4:12 PM CST on January 26, 2015 (GMT -0600)
Rochelle | Change Station
CLOSE
Current Station
Airport
Location: Rochelle,
Elevation: 781 ft
Nearby Weather Stations

Elev 781 ft 41.89 °N, 89.08 °W | Updated 17 minutes ago

Fog
Fog
23 °F
Feels Like 14 °F
N
8
Wind Variable Wind from SE

Today
High -- | Low -- °F
--% Chance of Precip.
Yesterday
High -- | Low -- °F
Precip. -- in
7:15 AM 5:02 PM
Waxing Crescent, 47% visible
Pressure 29.85 in
Visibility 4.0 miles
Clouds Scattered Clouds 700 ft
Scattered Clouds 1600 ft
Overcast 2200 ft
Windchill 14 °F
Dew Point 22 °F
Humidity 94%
Rainfall 0.00 in
Snow Depth Not available.
UV 0 out of 12
Pollen .10 out of 12
Air Quality Not available.
Flu Activity Not available.
METAR KRPJ 262155Z AUTO 14007KT 4SM BR SCT007 SCT016 OVC022 M05/M06 A2985 RMK AO2 T10481057

More Conditions Fewer Conditions

Pressure 29.85 in
Visibility 4.0 miles
Clouds Scattered Clouds 700 ft
Scattered Clouds 1600 ft
Overcast 2200 ft
Windchill 14 °F
Dew Point 22 °F
Humidity 94%
Rainfall 0.00 in
Snow Depth Not available.
UV 0 out of 12
Pollen .10 out of 12
Air Quality Not available.
Flu Activity Not available.
METAR KRPJ 262155Z AUTO 14007KT 4SM BR SCT007 SCT016 OVC022 M05/M06 A2985 RMK AO2 T10481057

More Conditions Fewer Conditions

Nowcast | as of 3:41 PM CST on January 26, 2015

Occasional freezing drizzle will occur into the early evening. Slippery spots are possible on untreated secondary roads and elevated surfaces. Motorists are advised to use extra caution.

×

10-Day Weather Forecast

Almanac

Astronomy

Jan. 26, 2015 Rise Set
Actual Time
Civil Twilight
Nautical Twilight
Astronomical Twilight
Moon
Length of Visible Light
Length of Day
Tomorrow will be .
, % of the Moon is Illuminated

Today's Extremes

State Highs State Lows

Community

WunderPhotos

Upload Photos

1,790,379 photos uploaded!

WunderBlogs® & News

Nearby

Air Quality

  Air Quality AQ Index Pollutant
Not available.

Snow Depth

Station Depth Elevation

Earthquake Activity

City Distance Mag. Time & Date
Minimum magnitude displayed is 2.5.

Coastal Water Temperatures

Place Temperature

Nearby Weather Stations